WZZ1098 EKBI-EPKT
Flight info
| Callsign | WZZ1098 |
|---|---|
| Flight time | 1h 12m |
| Altitude | 35000 |
| Route | RIDSI DCT KOSEB DCT BINKA DCT NUDRO DCT MOFKE |
| Aircraft | A21N/M-SDE3FGHIRWY/LB1 |
Departure
| Time | 2026-05-07 23:57 |
|---|---|
| Airport | Billund Airport (EKBI) |
Arrival
| Time | 2026-05-08 01:09 |
|---|---|
| Airport | Katowice Wojciech Korfanty International Airport (EPKT) |
| Time | Latitude | Longitude | Altitude | Speed | Heading |
|---|---|---|---|---|---|
| 2026-05-07 23:38 | 55.74523 | 9.14619 | 222 ft | 0 kts | 357° |
| 2026-05-07 23:49 | 55.74519 | 9.14619 | 221 ft | 2 kts | 357° |
| 2026-05-07 23:49 | 55.74500 | 9.14621 | 223 ft | 3 kts | 357° |
| 2026-05-07 23:49 | 55.74480 | 9.14623 | 225 ft | 2 kts | 357° |
| 2026-05-07 23:50 | 55.74464 | 9.14625 | 224 ft | 3 kts | 342° |
| 2026-05-07 23:50 | 55.74450 | 9.14639 | 225 ft | 3 kts | 297° |
| 2026-05-07 23:50 | 55.74446 | 9.14671 | 224 ft | 3 kts | 269° |
| 2026-05-07 23:50 | 55.74446 | 9.14690 | 224 ft | 1 kts | 266° |
| 2026-05-07 23:51 | 55.74446 | 9.14694 | 224 ft | 0 kts | 266° |
| 2026-05-07 23:52 | 55.74446 | 9.14682 | 224 ft | 3 kts | 266° |
| 2026-05-07 23:52 | 55.74445 | 9.14613 | 224 ft | 8 kts | 270° |
| 2026-05-07 23:53 | 55.74435 | 9.14499 | 223 ft | 10 kts | 227° |
| 2026-05-07 23:53 | 55.74365 | 9.14464 | 221 ft | 12 kts | 174° |
| 2026-05-07 23:53 | 55.74281 | 9.14466 | 221 ft | 13 kts | 207° |
| 2026-05-07 23:53 | 55.74256 | 9.14316 | 221 ft | 14 kts | 268° |
| 2026-05-07 23:54 | 55.74250 | 9.14125 | 221 ft | 17 kts | 265° |
| 2026-05-07 23:54 | 55.74239 | 9.13907 | 221 ft | 18 kts | 266° |
| 2026-05-07 23:54 | 55.74235 | 9.13678 | 223 ft | 19 kts | 266° |
| 2026-05-07 23:54 | 55.74227 | 9.13483 | 221 ft | 13 kts | 256° |
| 2026-05-07 23:55 | 55.74182 | 9.13339 | 221 ft | 14 kts | 224° |
| 2026-05-07 23:55 | 55.74092 | 9.13255 | 221 ft | 15 kts | 188° |
| 2026-05-07 23:55 | 55.73995 | 9.13266 | 221 ft | 0 kts | 171° |
| 2026-05-07 23:55 | 55.73988 | 9.13269 | 221 ft | 3 kts | 156° |
| 2026-05-07 23:56 | 55.73977 | 9.13324 | 221 ft | 6 kts | 91° |
| 2026-05-07 23:56 | 55.73978 | 9.13413 | 221 ft | 9 kts | 85° |
| 2026-05-07 23:56 | 55.73995 | 9.13852 | 221 ft | 70 kts | 86° |
| 2026-05-07 23:56 | 55.74031 | 9.15091 | 222 ft | 132 kts | 88° |
| 2026-05-07 23:57 | 55.74098 | 9.17030 | 422 ft | 168 kts | 86° |
| 2026-05-07 23:57 | 55.74163 | 9.19082 | 1170 ft | 167 kts | 87° |
| 2026-05-07 23:57 | 55.74223 | 9.21182 | 1687 ft | 179 kts | 89° |
| 2026-05-07 23:57 | 55.74282 | 9.23512 | 2049 ft | 199 kts | 88° |
| 2026-05-07 23:58 | 55.74355 | 9.26057 | 2551 ft | 214 kts | 88° |
| 2026-05-07 23:58 | 55.74290 | 9.28838 | 2840 ft | 240 kts | 108° |
| 2026-05-07 23:58 | 55.73674 | 9.31705 | 3381 ft | 254 kts | 114° |
| 2026-05-07 23:58 | 55.72991 | 9.34628 | 4178 ft | 258 kts | 113° |
| 2026-05-07 23:59 | 55.72322 | 9.37600 | 5044 ft | 261 kts | 112° |
| 2026-05-07 23:59 | 55.71662 | 9.40617 | 5866 ft | 263 kts | 112° |
| 2026-05-07 23:59 | 55.71006 | 9.43665 | 6678 ft | 266 kts | 111° |
| 2026-05-07 23:59 | 55.70348 | 9.46761 | 7456 ft | 269 kts | 111° |
| 2026-05-08 00:00 | 55.69687 | 9.49885 | 8223 ft | 272 kts | 111° |
| 2026-05-08 00:00 | 55.69020 | 9.53042 | 8973 ft | 275 kts | 111° |
| 2026-05-08 00:00 | 55.68349 | 9.56227 | 9721 ft | 278 kts | 111° |
| 2026-05-08 00:00 | 55.67673 | 9.59427 | 10380 ft | 284 kts | 111° |
| 2026-05-08 00:01 | 55.66958 | 9.62810 | 10693 ft | 302 kts | 111° |
| 2026-05-08 00:01 | 55.66201 | 9.66391 | 10979 ft | 319 kts | 111° |
| 2026-05-08 00:01 | 55.65413 | 9.70110 | 11525 ft | 326 kts | 111° |
| 2026-05-08 00:01 | 55.64610 | 9.73894 | 12205 ft | 329 kts | 111° |
| 2026-05-08 00:02 | 55.63800 | 9.77707 | 12896 ft | 333 kts | 111° |
| 2026-05-08 00:02 | 55.62980 | 9.81561 | 13592 ft | 336 kts | 111° |
| 2026-05-08 00:02 | 55.62151 | 9.85444 | 14239 ft | 339 kts | 111° |
| 2026-05-08 00:02 | 55.61313 | 9.89362 | 14841 ft | 343 kts | 111° |
| 2026-05-08 00:03 | 55.60463 | 9.93330 | 15442 ft | 347 kts | 111° |
| 2026-05-08 00:03 | 55.59600 | 9.97346 | 16038 ft | 351 kts | 111° |
| 2026-05-08 00:03 | 55.58611 | 10.01309 | 16612 ft | 354 kts | 117° |
| 2026-05-08 00:03 | 55.57477 | 10.05178 | 17185 ft | 358 kts | 118° |
| 2026-05-08 00:04 | 55.56305 | 10.09104 | 17738 ft | 362 kts | 118° |
| 2026-05-08 00:04 | 55.55129 | 10.13047 | 18302 ft | 365 kts | 117° |
| 2026-05-08 00:04 | 55.53939 | 10.17044 | 18802 ft | 369 kts | 117° |
| 2026-05-08 00:04 | 55.52739 | 10.21072 | 19310 ft | 371 kts | 118° |
| 2026-05-08 00:05 | 55.51532 | 10.25123 | 19814 ft | 374 kts | 118° |
| 2026-05-08 00:05 | 55.50318 | 10.29189 | 20313 ft | 376 kts | 118° |
| 2026-05-08 00:05 | 55.49094 | 10.33286 | 20824 ft | 378 kts | 118° |
| 2026-05-08 00:05 | 55.47861 | 10.37402 | 21312 ft | 381 kts | 118° |
| 2026-05-08 00:06 | 55.46620 | 10.41539 | 21790 ft | 383 kts | 118° |
| 2026-05-08 00:06 | 55.45366 | 10.45714 | 22235 ft | 386 kts | 118° |
| 2026-05-08 00:06 | 55.44120 | 10.49849 | 22675 ft | 389 kts | 118° |
| 2026-05-08 00:06 | 55.42850 | 10.54064 | 23118 ft | 391 kts | 118° |
| 2026-05-08 00:07 | 55.41570 | 10.58299 | 23565 ft | 393 kts | 118° |
| 2026-05-08 00:07 | 55.40278 | 10.62565 | 23959 ft | 396 kts | 118° |
| 2026-05-08 00:07 | 55.38981 | 10.66836 | 24329 ft | 397 kts | 118° |
| 2026-05-08 00:07 | 55.37674 | 10.71127 | 24699 ft | 399 kts | 118° |
| 2026-05-08 00:08 | 55.36358 | 10.75451 | 25065 ft | 401 kts | 118° |
| 2026-05-08 00:08 | 55.35036 | 10.79792 | 25425 ft | 402 kts | 118° |
| 2026-05-08 00:08 | 55.33713 | 10.84132 | 25772 ft | 404 kts | 118° |
| 2026-05-08 00:08 | 55.32378 | 10.88500 | 26115 ft | 406 kts | 118° |
| 2026-05-08 00:09 | 55.31037 | 10.92871 | 26456 ft | 407 kts | 118° |
| 2026-05-08 00:09 | 55.29690 | 10.97257 | 26783 ft | 409 kts | 118° |
| 2026-05-08 00:09 | 55.28334 | 11.01662 | 27121 ft | 411 kts | 118° |
| 2026-05-08 00:09 | 55.26974 | 11.06078 | 27448 ft | 412 kts | 118° |
| 2026-05-08 00:10 | 55.25608 | 11.10488 | 27763 ft | 414 kts | 118° |
| 2026-05-08 00:10 | 55.24230 | 11.14936 | 28077 ft | 415 kts | 118° |
| 2026-05-08 00:10 | 55.22850 | 11.19388 | 28379 ft | 417 kts | 118° |
| 2026-05-08 00:10 | 55.21459 | 11.23872 | 28682 ft | 418 kts | 118° |
| 2026-05-08 00:11 | 55.20067 | 11.28349 | 28968 ft | 420 kts | 118° |
| 2026-05-08 00:11 | 55.18666 | 11.32849 | 29249 ft | 421 kts | 118° |
| 2026-05-08 00:11 | 55.17274 | 11.37304 | 29527 ft | 423 kts | 118° |
| 2026-05-08 00:11 | 55.15860 | 11.41825 | 29793 ft | 425 kts | 118° |
| 2026-05-08 00:12 | 55.14440 | 11.46356 | 30062 ft | 426 kts | 118° |
| 2026-05-08 00:12 | 55.13011 | 11.50907 | 30316 ft | 427 kts | 118° |
| 2026-05-08 00:12 | 55.11579 | 11.55457 | 30529 ft | 429 kts | 118° |
| 2026-05-08 00:12 | 55.10137 | 11.60030 | 30761 ft | 430 kts | 117° |
| 2026-05-08 00:13 | 55.08692 | 11.64603 | 30983 ft | 431 kts | 117° |
| 2026-05-08 00:13 | 55.07238 | 11.69193 | 31192 ft | 432 kts | 117° |
| 2026-05-08 00:13 | 55.05780 | 11.73788 | 31401 ft | 433 kts | 117° |
| 2026-05-08 00:13 | 55.04315 | 11.78397 | 31582 ft | 434 kts | 117° |
| 2026-05-08 00:14 | 55.02846 | 11.83010 | 31793 ft | 435 kts | 117° |
| 2026-05-08 00:14 | 55.01373 | 11.87631 | 31993 ft | 436 kts | 117° |
| 2026-05-08 00:14 | 54.99893 | 11.92261 | 32243 ft | 435 kts | 117° |
| 2026-05-08 00:14 | 54.98415 | 11.96873 | 32487 ft | 434 kts | 117° |
| 2026-05-08 00:15 | 54.96963 | 12.01396 | 32723 ft | 433 kts | 117° |
| 2026-05-08 00:15 | 54.95495 | 12.05961 | 32945 ft | 432 kts | 117° |
| 2026-05-08 00:15 | 54.94022 | 12.10530 | 33186 ft | 432 kts | 117° |
| 2026-05-08 00:15 | 54.92553 | 12.15081 | 33383 ft | 431 kts | 117° |
| 2026-05-08 00:16 | 54.91085 | 12.19625 | 33593 ft | 431 kts | 117° |
| 2026-05-08 00:16 | 54.89615 | 12.24165 | 33784 ft | 430 kts | 117° |
| 2026-05-08 00:16 | 54.88622 | 12.27228 | 33916 ft | 430 kts | 117° |
| 2026-05-08 00:16 | 54.87176 | 12.31691 | 34089 ft | 429 kts | 117° |
| 2026-05-08 00:17 | 54.85710 | 12.36199 | 34253 ft | 429 kts | 117° |
| 2026-05-08 00:17 | 54.84239 | 12.40711 | 34372 ft | 429 kts | 117° |
| 2026-05-08 00:17 | 54.82765 | 12.45223 | 34477 ft | 430 kts | 117° |
| 2026-05-08 00:17 | 54.81290 | 12.49730 | 34578 ft | 430 kts | 118° |
| 2026-05-08 00:18 | 54.79807 | 12.54248 | 34685 ft | 431 kts | 118° |
| 2026-05-08 00:18 | 54.78260 | 12.58698 | 34751 ft | 433 kts | 123° |
| 2026-05-08 00:18 | 54.74175 | 12.66428 | 34889 ft | 437 kts | 134° |
| 2026-05-08 00:19 | 54.69788 | 12.73748 | 35083 ft | 438 kts | 134° |
| 2026-05-08 00:19 | 54.67600 | 12.77418 | 35202 ft | 437 kts | 134° |
| 2026-05-08 00:19 | 54.65454 | 12.81042 | 35243 ft | 439 kts | 134° |
| 2026-05-08 00:20 | 54.61057 | 12.88471 | 35225 ft | 445 kts | 134° |
| 2026-05-08 00:20 | 54.56602 | 12.95963 | 35217 ft | 450 kts | 134° |
| 2026-05-08 00:21 | 54.52092 | 13.03517 | 35205 ft | 453 kts | 135° |
| 2026-05-08 00:21 | 54.47564 | 13.11079 | 35211 ft | 454 kts | 135° |
| 2026-05-08 00:22 | 54.43015 | 13.18648 | 35211 ft | 455 kts | 135° |
| 2026-05-08 00:22 | 54.38474 | 13.26187 | 35213 ft | 458 kts | 135° |
| 2026-05-08 00:23 | 54.33867 | 13.33809 | 35211 ft | 460 kts | 135° |
| 2026-05-08 00:23 | 54.29244 | 13.41428 | 35211 ft | 461 kts | 135° |
| 2026-05-08 00:24 | 54.24610 | 13.49043 | 35213 ft | 462 kts | 136° |
| 2026-05-08 00:24 | 54.19951 | 13.56664 | 35209 ft | 464 kts | 136° |
| 2026-05-08 00:25 | 54.15301 | 13.64262 | 35210 ft | 464 kts | 136° |
| 2026-05-08 00:25 | 54.10619 | 13.71880 | 35211 ft | 464 kts | 136° |
| 2026-05-08 00:26 | 54.05948 | 13.79450 | 35205 ft | 464 kts | 136° |
| 2026-05-08 00:26 | 54.01308 | 13.86962 | 35200 ft | 463 kts | 136° |
| 2026-05-08 00:27 | 53.96630 | 13.94503 | 35199 ft | 463 kts | 136° |
| 2026-05-08 00:27 | 53.91943 | 14.02028 | 35200 ft | 464 kts | 137° |
| 2026-05-08 00:28 | 53.87240 | 14.09556 | 35203 ft | 466 kts | 137° |
| 2026-05-08 00:28 | 53.82525 | 14.17077 | 35201 ft | 465 kts | 137° |
| 2026-05-08 00:29 | 53.77801 | 14.24594 | 35200 ft | 466 kts | 137° |
| 2026-05-08 00:29 | 53.72801 | 14.31560 | 35197 ft | 466 kts | 143° |
| 2026-05-08 00:30 | 53.67636 | 14.38055 | 35195 ft | 465 kts | 143° |
| 2026-05-08 00:30 | 53.62433 | 14.44591 | 35183 ft | 466 kts | 143° |
| 2026-05-08 00:31 | 53.57236 | 14.51112 | 35178 ft | 467 kts | 144° |
| 2026-05-08 00:31 | 53.52015 | 14.57645 | 35175 ft | 467 kts | 144° |
| 2026-05-08 00:32 | 53.46786 | 14.64163 | 35178 ft | 468 kts | 144° |
| 2026-05-08 00:32 | 53.41546 | 14.70675 | 35178 ft | 468 kts | 144° |
| 2026-05-08 00:33 | 53.36323 | 14.77145 | 35180 ft | 468 kts | 144° |
| 2026-05-08 00:33 | 53.31074 | 14.83626 | 35176 ft | 468 kts | 144° |
| 2026-05-08 00:34 | 53.25826 | 14.90091 | 35174 ft | 469 kts | 144° |
| 2026-05-08 00:34 | 53.20575 | 14.96535 | 35167 ft | 469 kts | 144° |
| 2026-05-08 00:35 | 53.15310 | 15.02978 | 35168 ft | 470 kts | 144° |
| 2026-05-08 00:35 | 53.10049 | 15.09399 | 35168 ft | 469 kts | 144° |
| 2026-05-08 00:36 | 53.04782 | 15.15801 | 35167 ft | 468 kts | 144° |
| 2026-05-08 00:36 | 52.99544 | 15.22147 | 35169 ft | 468 kts | 144° |
| 2026-05-08 00:37 | 52.94265 | 15.28530 | 35164 ft | 470 kts | 144° |
| 2026-05-08 00:38 | 52.86368 | 15.38040 | 35162 ft | 467 kts | 145° |
| 2026-05-08 00:38 | 52.81096 | 15.44359 | 35156 ft | 468 kts | 145° |
| 2026-05-08 00:39 | 52.75820 | 15.50668 | 35157 ft | 468 kts | 145° |
| 2026-05-08 00:39 | 52.70550 | 15.56953 | 35143 ft | 467 kts | 145° |
| 2026-05-08 00:40 | 52.65267 | 15.63235 | 35148 ft | 469 kts | 145° |
| 2026-05-08 00:40 | 52.60017 | 15.69453 | 35138 ft | 468 kts | 146° |
| 2026-05-08 00:41 | 52.54744 | 15.75680 | 35140 ft | 466 kts | 146° |
| 2026-05-08 00:41 | 52.49464 | 15.81895 | 35142 ft | 466 kts | 146° |
| 2026-05-08 00:42 | 52.44198 | 15.88078 | 35139 ft | 466 kts | 146° |
| 2026-05-08 00:42 | 52.38919 | 15.94261 | 35138 ft | 465 kts | 146° |
| 2026-05-08 00:43 | 52.33638 | 16.00423 | 35140 ft | 466 kts | 146° |
| 2026-05-08 00:43 | 52.28368 | 16.06551 | 35133 ft | 463 kts | 146° |
| 2026-05-08 00:44 | 52.23114 | 16.12650 | 35138 ft | 464 kts | 146° |
| 2026-05-08 00:44 | 52.17888 | 16.18696 | 35134 ft | 463 kts | 146° |
| 2026-05-08 00:45 | 52.12580 | 16.24819 | 35126 ft | 463 kts | 146° |
| 2026-05-08 00:45 | 52.07311 | 16.30874 | 35132 ft | 465 kts | 147° |
| 2026-05-08 00:46 | 52.02070 | 16.36878 | 35121 ft | 463 kts | 147° |
| 2026-05-08 00:46 | 51.96817 | 16.42887 | 35129 ft | 461 kts | 147° |
| 2026-05-08 00:47 | 51.91574 | 16.48862 | 35129 ft | 460 kts | 147° |
| 2026-05-08 00:47 | 51.86346 | 16.54810 | 35127 ft | 458 kts | 147° |
| 2026-05-08 00:48 | 51.81134 | 16.60717 | 35122 ft | 457 kts | 147° |
| 2026-05-08 00:48 | 51.75936 | 16.66587 | 35123 ft | 454 kts | 147° |
| 2026-05-08 00:49 | 51.70760 | 16.72419 | 35120 ft | 455 kts | 148° |
| 2026-05-08 00:49 | 51.65544 | 16.78277 | 35124 ft | 459 kts | 148° |
| 2026-05-08 00:50 | 51.60305 | 16.84147 | 35116 ft | 459 kts | 148° |
| 2026-05-08 00:50 | 51.55062 | 16.90005 | 35119 ft | 459 kts | 148° |
| 2026-05-08 00:51 | 51.49808 | 16.95856 | 35117 ft | 459 kts | 148° |
| 2026-05-08 00:51 | 51.44558 | 17.01688 | 35117 ft | 459 kts | 148° |
| 2026-05-08 00:52 | 51.39383 | 17.07426 | 34444 ft | 444 kts | 148° |
| 2026-05-08 00:52 | 51.36860 | 17.10214 | 33703 ft | 438 kts | 148° |
| 2026-05-08 00:52 | 51.34368 | 17.12963 | 32873 ft | 433 kts | 149° |
| 2026-05-08 00:52 | 51.31898 | 17.15684 | 32131 ft | 427 kts | 149° |
| 2026-05-08 00:53 | 51.29475 | 17.18353 | 31455 ft | 420 kts | 149° |
| 2026-05-08 00:53 | 51.27089 | 17.20980 | 30698 ft | 414 kts | 149° |
| 2026-05-08 00:53 | 51.24724 | 17.23573 | 29784 ft | 423 kts | 149° |
| 2026-05-08 00:53 | 51.22281 | 17.26252 | 29227 ft | 428 kts | 149° |
| 2026-05-08 00:54 | 51.20017 | 17.29341 | 28162 ft | 431 kts | 136° |
| 2026-05-08 00:54 | 51.18145 | 17.33099 | 26806 ft | 435 kts | 131° |
| 2026-05-08 00:54 | 51.16355 | 17.37006 | 25335 ft | 438 kts | 130° |
| 2026-05-08 00:54 | 51.14522 | 17.40984 | 23899 ft | 441 kts | 130° |
| 2026-05-08 00:55 | 51.12703 | 17.44855 | 22307 ft | 443 kts | 131° |
| 2026-05-08 00:55 | 51.10840 | 17.48764 | 20775 ft | 444 kts | 131° |
| 2026-05-08 00:55 | 51.08960 | 17.52686 | 19920 ft | 444 kts | 131° |
| 2026-05-08 00:55 | 51.07087 | 17.56584 | 19542 ft | 443 kts | 131° |
| 2026-05-08 00:56 | 51.05216 | 17.60473 | 19094 ft | 441 kts | 131° |
| 2026-05-08 00:56 | 51.03354 | 17.64340 | 18601 ft | 439 kts | 131° |
| 2026-05-08 00:56 | 51.01507 | 17.68173 | 18052 ft | 436 kts | 130° |
| 2026-05-08 00:56 | 50.99665 | 17.71985 | 17515 ft | 433 kts | 130° |
| 2026-05-08 00:57 | 50.97845 | 17.75744 | 16982 ft | 428 kts | 130° |
| 2026-05-08 00:57 | 50.96033 | 17.79484 | 16485 ft | 425 kts | 130° |
| 2026-05-08 00:57 | 50.94234 | 17.83193 | 16001 ft | 422 kts | 130° |
| 2026-05-08 00:57 | 50.92447 | 17.86869 | 15552 ft | 420 kts | 130° |
| 2026-05-08 00:58 | 50.90668 | 17.90526 | 15103 ft | 417 kts | 130° |
| 2026-05-08 00:58 | 50.88902 | 17.94153 | 14620 ft | 415 kts | 130° |
| 2026-05-08 00:58 | 50.87143 | 17.97760 | 14119 ft | 413 kts | 130° |
| 2026-05-08 00:58 | 50.85390 | 18.01348 | 13622 ft | 410 kts | 130° |
| 2026-05-08 00:59 | 50.83651 | 18.04898 | 13121 ft | 408 kts | 130° |
| 2026-05-08 00:59 | 50.81911 | 18.08449 | 12634 ft | 406 kts | 130° |
| 2026-05-08 00:59 | 50.80767 | 18.10781 | 12294 ft | 405 kts | 130° |
| 2026-05-08 00:59 | 50.79047 | 18.14286 | 11795 ft | 403 kts | 130° |
| 2026-05-08 01:00 | 50.77331 | 18.17775 | 11325 ft | 401 kts | 130° |
| 2026-05-08 01:00 | 50.75621 | 18.21250 | 10837 ft | 399 kts | 130° |
| 2026-05-08 01:00 | 50.73924 | 18.24693 | 10381 ft | 397 kts | 130° |
| 2026-05-08 01:00 | 50.72227 | 18.28131 | 9967 ft | 396 kts | 130° |
| 2026-05-08 01:01 | 50.70539 | 18.31546 | 9453 ft | 390 kts | 129° |
| 2026-05-08 01:01 | 50.68896 | 18.34868 | 8785 ft | 378 kts | 129° |
| 2026-05-08 01:01 | 50.67303 | 18.38078 | 8250 ft | 365 kts | 129° |
| 2026-05-08 01:01 | 50.65772 | 18.41164 | 7885 ft | 349 kts | 129° |
| 2026-05-08 01:02 | 50.63830 | 18.45076 | 7329 ft | 339 kts | 129° |
| 2026-05-08 01:02 | 50.62846 | 18.47053 | 7042 ft | 337 kts | 129° |
| 2026-05-08 01:02 | 50.61408 | 18.49942 | 6605 ft | 334 kts | 129° |
| 2026-05-08 01:02 | 50.60002 | 18.52762 | 6069 ft | 321 kts | 129° |
| 2026-05-08 01:03 | 50.58650 | 18.55472 | 5552 ft | 308 kts | 129° |
| 2026-05-08 01:03 | 50.57356 | 18.58065 | 5112 ft | 294 kts | 129° |
| 2026-05-08 01:03 | 50.56141 | 18.60502 | 4881 ft | 280 kts | 128° |
| 2026-05-08 01:03 | 50.54969 | 18.62867 | 4682 ft | 271 kts | 128° |
| 2026-05-08 01:04 | 50.53801 | 18.65204 | 4286 ft | 272 kts | 129° |
| 2026-05-08 01:04 | 50.52626 | 18.67531 | 3954 ft | 269 kts | 128° |
| 2026-05-08 01:04 | 50.51492 | 18.69783 | 3869 ft | 255 kts | 128° |
| 2026-05-08 01:04 | 50.50423 | 18.71905 | 3865 ft | 244 kts | 128° |
| 2026-05-08 01:05 | 50.49378 | 18.73982 | 3874 ft | 238 kts | 128° |
| 2026-05-08 01:05 | 50.48390 | 18.75946 | 3867 ft | 219 kts | 127° |
| 2026-05-08 01:05 | 50.47594 | 18.78003 | 3867 ft | 221 kts | 108° |
| 2026-05-08 01:05 | 50.47412 | 18.80364 | 3503 ft | 216 kts | 85° |
| 2026-05-08 01:06 | 50.47497 | 18.82726 | 3132 ft | 216 kts | 85° |
| 2026-05-08 01:06 | 50.47559 | 18.85069 | 2847 ft | 211 kts | 86° |
| 2026-05-08 01:06 | 50.47591 | 18.87362 | 2842 ft | 205 kts | 87° |
| 2026-05-08 01:06 | 50.47605 | 18.89446 | 2904 ft | 179 kts | 88° |
| 2026-05-08 01:07 | 50.47617 | 18.91345 | 2713 ft | 169 kts | 88° |
| 2026-05-08 01:07 | 50.47620 | 18.93140 | 2468 ft | 161 kts | 87° |
| 2026-05-08 01:07 | 50.47617 | 18.94913 | 2264 ft | 162 kts | 88° |
| 2026-05-08 01:07 | 50.47620 | 18.96641 | 2051 ft | 155 kts | 86° |
| 2026-05-08 01:08 | 50.47615 | 18.98239 | 1841 ft | 143 kts | 86° |
| 2026-05-08 01:08 | 50.47613 | 18.99801 | 1661 ft | 143 kts | 86° |
| 2026-05-08 01:08 | 50.47597 | 19.01383 | 1467 ft | 143 kts | 88° |
| 2026-05-08 01:08 | 50.47575 | 19.02908 | 1373 ft | 142 kts | 86° |
| 2026-05-08 01:09 | 50.47595 | 19.04460 | 1233 ft | 142 kts | 85° |
| 2026-05-08 01:09 | 50.47603 | 19.06020 | 1048 ft | 143 kts | 87° |
| 2026-05-08 01:09 | 50.47602 | 19.07399 | 1006 ft | 91 kts | 91° |
| 2026-05-08 01:09 | 50.47599 | 19.07982 | 1002 ft | 36 kts | 86° |
| 2026-05-08 01:10 | 50.47598 | 19.08379 | 1002 ft | 37 kts | 92° |
| 2026-05-08 01:10 | 50.47602 | 19.08791 | 1006 ft | 38 kts | 91° |
| 2026-05-08 01:10 | 50.47597 | 19.09202 | 1007 ft | 24 kts | 90° |
| 2026-05-08 01:10 | 50.47596 | 19.09279 | 1007 ft | 7 kts | 90° |
| 2026-05-08 01:11 | 50.47594 | 19.09353 | 1006 ft | 5 kts | 95° |
| 2026-05-08 01:11 | 50.47557 | 19.09385 | 1005 ft | 9 kts | 175° |
| 2026-05-08 01:11 | 50.47478 | 19.09389 | 1004 ft | 12 kts | 181° |
| 2026-05-08 01:11 | 50.47386 | 19.09387 | 1004 ft | 14 kts | 181° |
| 2026-05-08 01:12 | 50.47286 | 19.09385 | 1004 ft | 15 kts | 179° |
| 2026-05-08 01:12 | 50.47230 | 19.09285 | 1004 ft | 15 kts | 268° |
| 2026-05-08 01:12 | 50.47234 | 19.09119 | 1004 ft | 16 kts | 271° |
| 2026-05-08 01:12 | 50.47237 | 19.08937 | 1004 ft | 17 kts | 270° |
| 2026-05-08 01:13 | 50.47232 | 19.08900 | 1004 ft | 3 kts | 240° |
| 2026-05-08 01:13 | 50.47204 | 19.08883 | 1004 ft | 6 kts | 163° |
| 2026-05-08 01:13 | 50.47156 | 19.08884 | 1004 ft | 5 kts | 182° |
| 2026-05-08 01:13 | 50.47142 | 19.08884 | 1004 ft | 0 kts | 181° |